createdAt,value
2022-12-01T00:01:06.791Z,18.88
2022-12-01T00:03:33.717Z,20.07
2022-12-01T00:06:02.009Z,18.27
2022-12-01T00:08:29.552Z,18.52
2022-12-01T00:10:56.467Z,16.25
2022-12-01T00:13:23.048Z,15.43
2022-12-01T00:15:49.595Z,17.23
2022-12-01T00:18:16.319Z,16.98
2022-12-01T00:20:42.906Z,17.90
2022-12-01T00:23:09.748Z,17.30
2022-12-01T00:25:36.413Z,18.65
2022-12-01T00:28:03.087Z,17.63
2022-12-01T00:30:29.859Z,16.98
2022-12-01T00:32:56.379Z,18.10
2022-12-01T00:35:23.157Z,18.08
2022-12-01T00:37:49.660Z,18.77
2022-12-01T00:40:16.245Z,19.27
2022-12-01T00:42:42.732Z,18.38
2022-12-01T00:45:09.943Z,18.17
2022-12-01T00:47:36.533Z,18.23
2022-12-01T00:50:03.674Z,18.73
2022-12-01T00:52:30.174Z,16.97
2022-12-01T00:54:56.666Z,18.20
2022-12-01T00:57:23.216Z,19.45
2022-12-01T00:59:49.990Z,20.25
2022-12-01T01:02:16.818Z,20.67
2022-12-01T01:04:43.391Z,18.67
2022-12-01T01:07:09.937Z,20.13
2022-12-01T01:09:36.662Z,19.92
2022-12-01T01:12:03.252Z,19.45
2022-12-01T01:14:30.016Z,20.10
2022-12-01T01:16:56.605Z,20.33
2022-12-01T01:19:23.809Z,20.20
2022-12-01T01:21:50.415Z,18.95
2022-12-01T01:24:17.003Z,19.63
2022-12-01T01:26:43.547Z,18.13
2022-12-01T01:29:10.183Z,18.90
2022-12-01T01:31:36.743Z,19.35
2022-12-01T01:34:03.959Z,18.35
2022-12-01T01:36:31.395Z,19.02
2022-12-01T01:38:57.946Z,18.20
2022-12-01T01:41:24.892Z,20.23
2022-12-01T01:43:57.673Z,17.60
2022-12-01T01:46:27.569Z,18.65
2022-12-01T01:49:02.178Z,19.30
2022-12-01T01:51:46.708Z,18.90
2022-12-01T01:54:22.334Z,19.27
2022-12-01T01:56:51.770Z,18.45
2022-12-01T01:59:22.639Z,18.65
2022-12-01T02:01:56.860Z,19.63
2022-12-01T02:04:25.108Z,19.25
2022-12-01T02:06:51.904Z,20.20
2022-12-01T02:09:18.626Z,19.65
2022-12-01T02:11:58.450Z,17.17
2022-12-01T02:14:49.945Z,15.88
2022-12-01T02:17:43.491Z,15.18
2022-12-01T02:20:21.856Z,15.43
2022-12-01T02:23:20.383Z,19.23
2022-12-01T02:26:31.197Z,17.77
2022-12-01T02:29:22.314Z,17.60
2022-12-01T02:31:59.274Z,16.30
2022-12-01T02:34:45.047Z,18.67
2022-12-01T02:37:20.503Z,17.60
2022-12-01T02:40:24.767Z,21.55
2022-12-01T02:43:07.677Z,21.02
2022-12-01T02:45:45.903Z,20.75
2022-12-01T02:48:19.442Z,22.20
2022-12-01T02:50:46.628Z,25.35
2022-12-01T02:53:18.995Z,27.10
2022-12-01T02:55:51.664Z,32.95
2022-12-01T02:58:18.446Z,32.88
2022-12-01T03:01:04.427Z,35.77
2022-12-01T03:04:10.922Z,35.15
2022-12-01T03:07:02.583Z,30.85
2022-12-01T03:09:47.562Z,32.47
2022-12-01T03:12:34.564Z,31.58
2022-12-01T03:15:01.624Z,26.60
2022-12-01T03:17:36.289Z,25.33
2022-12-01T03:20:08.741Z,22.95
2022-12-01T03:22:42.532Z,23.83
2022-12-01T03:25:12.088Z,22.98
2022-12-01T03:28:00.607Z,21.67
2022-12-01T03:30:32.385Z,23.05
2022-12-01T03:33:05.170Z,22.98
2022-12-01T03:35:39.570Z,23.42
2022-12-01T03:38:13.389Z,22.50
2022-12-01T03:40:41.389Z,22.43
2022-12-01T03:43:11.941Z,23.17
2022-12-01T03:45:52.611Z,23.75
2022-12-01T03:48:19.381Z,22.95
2022-12-01T03:51:14.598Z,23.67
2022-12-01T03:53:51.052Z,22.20
2022-12-01T03:56:22.351Z,20.88
2022-12-01T03:58:51.258Z,23.58
2022-12-01T04:01:17.996Z,21.13
2022-12-01T04:03:46.622Z,21.73
2022-12-01T04:06:13.695Z,22.83
2022-12-01T04:08:40.247Z,24.55
2022-12-01T04:11:32.212Z,26.30
2022-12-01T04:13:59.135Z,22.58
2022-12-01T04:16:25.839Z,23.45
2022-12-01T04:18:52.439Z,24.80
2022-12-01T04:21:19.017Z,26.92
2022-12-01T04:24:00.507Z,26.58
2022-12-01T04:26:32.336Z,23.40
2022-12-01T04:29:00.699Z,23.55
2022-12-01T04:31:27.841Z,25.60
2022-12-01T04:33:58.850Z,24.17
2022-12-01T04:36:26.231Z,21.02
2022-12-01T04:38:53.127Z,21.52
2022-12-01T04:41:19.767Z,23.95
2022-12-01T04:43:46.281Z,22.33
2022-12-01T04:46:13.013Z,23.42
2022-12-01T04:48:40.255Z,29.83
2022-12-01T04:51:08.408Z,25.65
2022-12-01T04:53:36.296Z,23.92
2022-12-01T04:56:03.725Z,23.03
2022-12-01T04:58:32.217Z,27.25
2022-12-01T05:01:06.593Z,26.67
2022-12-01T05:03:37.294Z,49.13
2022-12-01T05:06:15.272Z,22.35
2022-12-01T05:08:42.224Z,24.57
2022-12-01T05:11:11.765Z,19.80
2022-12-01T05:13:43.553Z,25.02
2022-12-01T05:16:16.169Z,26.30
2022-12-01T05:18:43.352Z,25.05
2022-12-01T05:21:11.183Z,25.37
2022-12-01T05:23:39.079Z,37.35
2022-12-01T05:26:08.018Z,27.83
2022-12-01T05:28:35.384Z,30.77
2022-12-01T05:31:02.654Z,28.40
2022-12-01T05:33:29.739Z,29.07
2022-12-01T05:35:56.343Z,64.82
2022-12-01T05:38:22.899Z,33.50
2022-12-01T05:40:53.139Z,44.53
2022-12-01T05:43:26.868Z,30.05
2022-12-01T05:45:55.964Z,38.97
2022-12-01T05:48:23.001Z,27.85
2022-12-01T05:50:49.471Z,26.27
2022-12-01T05:53:16.235Z,35.08
2022-12-01T05:55:42.928Z,57.47
2022-12-01T05:58:09.914Z,32.50
2022-12-01T06:00:43.862Z,31.05
2022-12-01T06:03:12.087Z,31.00
2022-12-01T06:05:38.631Z,29.40
2022-12-01T06:08:05.292Z,29.95
2022-12-01T06:10:31.840Z,30.40
2022-12-01T06:12:58.444Z,30.05
2022-12-01T06:15:24.966Z,27.65
2022-12-01T06:17:51.486Z,28.80
2022-12-01T06:20:18.167Z,26.65
2022-12-01T06:22:44.669Z,29.83
2022-12-01T06:25:11.339Z,29.23
2022-12-01T06:27:37.889Z,19.33
2022-12-01T06:30:05.115Z,19.08
2022-12-01T06:32:31.617Z,19.38
2022-12-01T06:34:58.319Z,17.93
2022-12-01T06:37:24.860Z,22.88
2022-12-01T06:39:52.499Z,16.70
2022-12-01T06:42:19.097Z,19.23
2022-12-01T06:44:46.679Z,20.88
2022-12-01T06:47:13.198Z,21.00
2022-12-01T06:49:39.729Z,19.83
2022-12-01T06:52:06.319Z,23.42
2022-12-01T06:54:33.499Z,24.55
2022-12-01T06:56:59.996Z,18.40
2022-12-01T06:59:26.790Z,28.97
2022-12-01T07:01:53.704Z,33.92
2022-12-01T07:04:20.375Z,36.80
2022-12-01T07:06:46.910Z,28.42
2022-12-01T07:09:13.467Z,32.17
2022-12-01T07:11:39.974Z,35.33
2022-12-01T07:14:06.756Z,24.88
2022-12-01T07:16:33.335Z,37.33
2022-12-01T07:19:00.028Z,25.02
2022-12-01T07:21:26.623Z,37.85
2022-12-01T07:23:54.402Z,31.40
2022-12-01T07:26:20.991Z,35.03
2022-12-01T07:28:47.601Z,32.78
2022-12-01T07:31:17.217Z,32.83
2022-12-01T07:33:43.856Z,25.92
2022-12-01T07:36:11.793Z,30.40
2022-12-01T07:38:39.411Z,32.42
2022-12-01T07:41:08.872Z,23.90
2022-12-01T07:43:35.965Z,30.88
2022-12-01T07:46:05.677Z,26.83
2022-12-01T07:48:32.283Z,18.83
2022-12-01T07:50:58.770Z,21.02
2022-12-01T07:53:25.346Z,18.75
2022-12-01T07:55:51.889Z,27.05
2022-12-01T07:58:18.393Z,22.15
2022-12-01T08:00:45.112Z,20.83
2022-12-01T08:03:11.845Z,20.25
2022-12-01T08:05:38.449Z,24.63
2022-12-01T08:08:05.382Z,20.30
2022-12-01T08:10:32.181Z,21.83
2022-12-01T08:12:58.715Z,21.67
2022-12-01T08:15:25.309Z,21.42
2022-12-01T08:17:51.924Z,24.95
2022-12-01T08:20:23.745Z,24.75
2022-12-01T08:22:50.619Z,25.80
2022-12-01T08:25:17.227Z,25.30
2022-12-01T08:27:43.737Z,23.40
2022-12-01T08:30:10.680Z,28.50
2022-12-01T08:32:37.205Z,32.35
2022-12-01T08:35:03.914Z,30.27
2022-12-01T08:37:30.413Z,31.60
2022-12-01T08:39:56.918Z,33.75
2022-12-01T08:42:23.457Z,34.80
2022-12-01T08:44:49.986Z,34.28
2022-12-01T08:47:18.890Z,33.83
2022-12-01T08:49:45.702Z,34.37
2022-12-01T08:52:12.306Z,35.70
2022-12-01T08:54:38.800Z,35.20
2022-12-01T08:57:05.334Z,37.35
2022-12-01T08:59:32.019Z,36.92
2022-12-01T09:02:00.464Z,39.10
2022-12-01T09:04:30.232Z,38.50
2022-12-01T09:06:57.923Z,41.83
2022-12-01T09:09:28.400Z,40.50
2022-12-01T09:11:55.914Z,42.40
2022-12-01T09:14:23.100Z,43.17
2022-12-01T09:16:50.689Z,40.75
2022-12-01T09:19:24.163Z,43.92
2022-12-01T09:21:51.431Z,42.40
2022-12-01T09:24:17.976Z,42.58
2022-12-01T09:26:44.513Z,41.05
2022-12-01T09:29:14.073Z,41.67
2022-12-01T09:31:41.643Z,41.90
2022-12-01T09:34:13.192Z,44.95
2022-12-01T09:36:40.936Z,46.38
2022-12-01T09:39:09.083Z,44.22
2022-12-01T09:41:39.389Z,49.97
2022-12-01T09:44:21.873Z,49.47
2022-12-01T09:46:56.281Z,50.50
2022-12-01T09:49:26.377Z,48.55
2022-12-01T09:51:54.708Z,35.70
2022-12-01T09:54:21.581Z,43.25
2022-12-01T09:56:53.132Z,42.38
2022-12-01T09:59:26.912Z,40.67
2022-12-01T10:02:01.363Z,39.65
2022-12-01T10:04:36.072Z,35.78
2022-12-01T10:07:17.145Z,36.85
2022-12-01T10:09:55.274Z,35.25
2022-12-01T10:12:27.578Z,35.30
2022-12-01T10:15:12.775Z,32.25
2022-12-01T10:18:02.866Z,34.70
2022-12-01T10:20:42.477Z,28.05
2022-12-01T10:23:41.314Z,29.80
2022-12-01T10:26:17.794Z,35.03
2022-12-01T10:29:12.502Z,36.08
2022-12-01T10:31:51.766Z,33.95
2022-12-01T10:34:28.990Z,35.78
2022-12-01T10:36:57.077Z,30.92
2022-12-01T10:39:35.325Z,33.30
2022-12-01T10:42:19.515Z,32.17
2022-12-01T10:44:46.603Z,33.83
2022-12-01T10:47:24.825Z,33.17
2022-12-01T10:49:52.858Z,28.38
2022-12-01T10:52:38.327Z,22.45
2022-12-01T10:55:26.314Z,30.20
2022-12-01T10:57:55.695Z,31.92
2022-12-01T11:00:58.187Z,29.40
2022-12-01T11:03:22.111Z,34.55
2022-12-01T11:05:55.369Z,34.03
2022-12-01T11:08:42.095Z,35.67
2022-12-01T11:11:28.676Z,32.83
2022-12-01T11:13:58.106Z,36.30
2022-12-01T11:16:35.606Z,33.95
2022-12-01T11:19:14.224Z,32.00
2022-12-01T11:21:52.867Z,29.92
2022-12-01T11:24:55.840Z,27.63
2022-12-01T11:27:29.566Z,28.85
2022-12-01T11:30:04.790Z,26.88
2022-12-01T11:32:35.546Z,25.38
2022-12-01T11:35:21.982Z,26.58
2022-12-01T11:40:47.314Z,23.00
2022-12-01T11:43:24.924Z,22.63
2022-12-01T11:45:53.613Z,20.10
2022-12-01T11:48:25.858Z,17.73
2022-12-01T11:51:07.826Z,16.10
2022-12-01T11:53:40.791Z,18.02
2022-12-01T11:56:13.059Z,16.27
2022-12-01T11:58:39.964Z,17.48
2022-12-01T12:01:22.148Z,16.70
2022-12-01T12:04:22.854Z,17.00
2022-12-01T12:07:02.307Z,14.90
2022-12-01T12:10:07.093Z,18.10
2022-12-01T12:12:52.377Z,16.55
2022-12-01T12:15:38.245Z,17.85
2022-12-01T12:18:36.076Z,16.85
2022-12-01T12:21:28.353Z,16.30
2022-12-01T12:24:15.856Z,15.30
2022-12-01T12:26:52.383Z,15.65
2022-12-01T12:29:47.034Z,15.45
2022-12-01T12:32:28.601Z,15.82
2022-12-01T12:34:57.887Z,16.92
2022-12-01T12:37:48.818Z,15.73
2022-12-01T12:40:24.163Z,16.08
2022-12-01T12:43:05.870Z,15.18
2022-12-01T12:45:57.110Z,15.82
2022-12-01T12:48:23.606Z,13.23
2022-12-01T12:51:13.213Z,15.93
2022-12-01T12:53:59.925Z,15.23
2022-12-01T12:56:30.665Z,14.35
2022-12-01T12:59:03.395Z,14.38
2022-12-01T13:01:41.044Z,15.48
2022-12-01T13:04:10.006Z,15.35
2022-12-01T13:06:46.584Z,14.63
2022-12-01T13:09:16.700Z,16.17
2022-12-01T13:12:04.748Z,15.07
2022-12-01T13:14:39.301Z,14.85
2022-12-01T13:17:20.941Z,13.93
2022-12-01T13:19:48.534Z,14.73
2022-12-01T13:22:18.064Z,15.13
2022-12-01T13:24:44.909Z,14.43
2022-12-01T13:27:19.592Z,13.25
2022-12-01T13:29:52.463Z,13.68
2022-12-01T13:32:40.414Z,15.68
2022-12-01T13:35:29.180Z,13.75
2022-12-01T13:38:12.377Z,14.02
2022-12-01T13:40:39.533Z,13.25
2022-12-01T13:43:18.696Z,13.23
2022-12-01T13:45:46.072Z,14.75
2022-12-01T13:48:37.435Z,12.52
2022-12-01T13:51:04.984Z,13.23
2022-12-01T13:53:38.632Z,12.27
2022-12-01T13:56:17.490Z,13.15
2022-12-01T13:58:46.084Z,12.90
2022-12-01T14:01:22.069Z,13.25
2022-12-01T14:04:03.683Z,14.02
2022-12-01T14:06:38.696Z,14.03
2022-12-01T14:09:13.666Z,12.95
2022-12-01T14:11:40.529Z,13.63
2022-12-01T14:14:09.824Z,13.38
2022-12-01T14:16:47.716Z,13.35
2022-12-01T14:19:45.329Z,11.90
2022-12-01T14:22:44.052Z,12.60
2022-12-01T14:25:19.773Z,11.73
2022-12-01T14:27:49.039Z,12.18
2022-12-01T14:30:41.004Z,12.48
2022-12-01T14:33:45.009Z,11.73
2022-12-01T14:36:23.416Z,12.85
2022-12-01T14:39:03.197Z,12.43
2022-12-01T14:41:39.798Z,12.68
2022-12-01T14:44:16.367Z,11.95
2022-12-01T14:47:00.528Z,12.20
2022-12-01T14:49:32.199Z,13.50
2022-12-01T14:52:04.631Z,11.45
2022-12-01T14:54:47.097Z,12.60
2022-12-01T14:57:18.321Z,12.07
2022-12-01T14:59:44.909Z,12.38
2022-12-01T15:02:12.453Z,11.80
2022-12-01T15:05:08.916Z,11.93
2022-12-01T15:07:40.590Z,12.85
2022-12-01T15:10:23.834Z,12.63
2022-12-01T15:12:52.012Z,12.13
2022-12-01T15:15:24.518Z,13.88
2022-12-01T15:17:52.500Z,13.38
2022-12-01T15:20:47.940Z,12.40
2022-12-01T15:23:17.152Z,12.63
2022-12-01T15:25:46.154Z,12.40
2022-12-01T15:28:14.170Z,13.45
2022-12-01T15:30:45.508Z,13.10
2022-12-01T15:33:36.958Z,12.88
2022-12-01T15:36:04.433Z,14.15
2022-12-01T15:38:36.777Z,15.48
2022-12-01T15:41:28.409Z,13.32
2022-12-01T15:44:01.965Z,14.48
2022-12-01T15:46:30.883Z,13.55
2022-12-01T15:49:17.969Z,14.00
2022-12-01T15:51:45.826Z,14.20
2022-12-01T15:54:22.865Z,13.80
2022-12-01T15:56:55.784Z,15.07
2022-12-01T15:59:27.295Z,14.05
2022-12-01T16:01:54.072Z,12.98
2022-12-01T16:04:29.458Z,13.45
2022-12-01T16:06:59.311Z,14.48
2022-12-01T16:09:31.467Z,13.15
2022-12-01T16:12:13.070Z,13.15
2022-12-01T16:15:15.439Z,11.93
2022-12-01T16:17:49.323Z,14.40
2022-12-01T16:20:34.235Z,13.65
2022-12-01T16:23:10.187Z,12.38
2022-12-01T16:25:45.579Z,12.48
2022-12-01T16:28:37.342Z,13.90
2022-12-01T16:31:05.704Z,11.85
2022-12-01T16:33:37.580Z,12.30
2022-12-01T16:36:04.412Z,15.23
2022-12-01T16:38:30.929Z,12.65
2022-12-01T16:40:59.963Z,12.85
2022-12-01T16:43:28.608Z,12.90
2022-12-01T16:46:00.994Z,13.60
2022-12-01T16:48:27.535Z,13.23
2022-12-01T16:50:54.711Z,14.82
2022-12-01T16:53:21.451Z,13.93
2022-12-01T16:55:55.139Z,15.00
2022-12-01T16:58:22.078Z,15.02
2022-12-01T17:00:52.576Z,14.13
2022-12-01T17:03:25.065Z,14.85
2022-12-01T17:05:52.733Z,14.30
2022-12-01T17:08:19.753Z,15.10
2022-12-01T17:10:50.248Z,14.02
2022-12-01T17:13:17.795Z,15.07
2022-12-01T17:15:49.378Z,14.50
2022-12-01T17:18:17.987Z,14.20
2022-12-01T17:20:44.750Z,14.95
2022-12-01T17:23:11.642Z,15.38
2022-12-01T17:25:42.183Z,14.02
2022-12-01T17:28:08.696Z,15.90
2022-12-01T17:30:36.946Z,15.83
2022-12-01T17:33:03.540Z,15.93
2022-12-01T17:35:30.195Z,15.45
2022-12-01T17:37:56.740Z,15.43
2022-12-01T17:40:23.238Z,15.65
2022-12-01T17:42:51.150Z,16.60
2022-12-01T17:45:18.510Z,14.73
2022-12-01T17:47:45.213Z,16.77
2022-12-01T17:50:12.260Z,14.38
2022-12-01T17:52:38.956Z,15.65
2022-12-01T17:55:06.237Z,16.40
2022-12-01T17:57:32.880Z,14.82
2022-12-01T18:00:01.430Z,16.98
2022-12-01T18:02:28.227Z,15.63
2022-12-01T18:04:54.939Z,16.98
2022-12-01T18:07:21.867Z,17.13
2022-12-01T18:09:48.596Z,14.68
2022-12-01T18:12:15.138Z,16.80
2022-12-01T18:14:41.654Z,15.35
2022-12-01T18:17:08.168Z,16.23
2022-12-01T18:19:34.756Z,15.33
2022-12-01T18:22:01.291Z,15.70
2022-12-01T18:24:27.853Z,15.68
2022-12-01T18:26:54.908Z,16.08
2022-12-01T18:29:26.125Z,16.48
2022-12-01T18:31:57.335Z,16.50
2022-12-01T18:34:25.573Z,16.80
2022-12-01T18:36:52.114Z,17.05
2022-12-01T18:39:18.832Z,17.42
2022-12-01T18:41:45.342Z,17.83
2022-12-01T18:44:11.957Z,17.93
2022-12-01T18:46:38.772Z,15.25
2022-12-01T18:49:06.734Z,17.50
2022-12-01T18:51:36.230Z,15.77
2022-12-01T18:54:04.209Z,17.02
2022-12-01T18:56:31.659Z,15.20
2022-12-01T18:59:00.948Z,15.38
2022-12-01T19:01:32.088Z,15.90
2022-12-01T19:03:59.649Z,15.48
2022-12-01T19:06:27.234Z,15.75
2022-12-01T19:08:54.498Z,13.93
2022-12-01T19:11:21.969Z,16.02
2022-12-01T19:13:48.707Z,16.58
2022-12-01T19:16:18.569Z,15.93
2022-12-01T19:18:46.077Z,15.63
2022-12-01T19:21:16.171Z,18.17
2022-12-01T19:23:43.646Z,16.77
2022-12-01T19:26:12.403Z,15.85
2022-12-01T19:28:40.381Z,16.23
2022-12-01T19:31:12.688Z,16.13
2022-12-01T19:33:39.715Z,14.80
2022-12-01T19:36:12.085Z,15.00
2022-12-01T19:38:39.302Z,14.23
2022-12-01T19:41:07.266Z,17.58
2022-12-01T19:43:35.013Z,17.05
2022-12-01T19:46:06.826Z,18.47
2022-12-01T19:48:33.557Z,17.55
2022-12-01T19:51:00.221Z,17.93
2022-12-01T19:53:31.864Z,15.88
2022-12-01T19:56:03.909Z,17.40
2022-12-01T19:58:33.331Z,17.80
2022-12-01T20:01:11.860Z,18.75
2022-12-01T20:03:40.629Z,17.17
2022-12-01T20:06:12.960Z,17.40
2022-12-01T20:08:40.065Z,19.95
2022-12-01T20:11:07.774Z,19.60
2022-12-01T20:13:36.344Z,18.40
2022-12-01T20:16:12.058Z,19.23
2022-12-01T20:18:39.567Z,16.50
2022-12-01T20:21:16.459Z,15.45
2022-12-01T20:23:47.189Z,16.73
2022-12-01T20:26:15.449Z,16.67
2022-12-01T20:28:42.836Z,16.20
2022-12-01T20:31:15.930Z,16.30
2022-12-01T20:33:43.260Z,17.42
2022-12-01T20:36:10.612Z,17.27
2022-12-01T20:38:38.060Z,17.40
2022-12-01T20:41:06.123Z,16.83
2022-12-01T20:43:33.327Z,16.90
2022-12-01T20:46:00.340Z,16.45
2022-12-01T20:48:27.647Z,17.17
2022-12-01T20:50:54.312Z,19.25
2022-12-01T20:53:20.988Z,18.67
2022-12-01T20:55:47.524Z,20.00
2022-12-01T20:58:14.042Z,20.17
2022-12-01T21:00:45.298Z,19.88
2022-12-01T21:03:13.128Z,19.25
2022-12-01T21:05:41.704Z,18.10
2022-12-01T21:08:11.425Z,20.73
2022-12-01T21:10:40.360Z,19.65
2022-12-01T21:13:38.952Z,22.65
2022-12-01T21:16:14.116Z,19.85
2022-12-01T21:18:43.651Z,21.40
2022-12-01T21:21:21.815Z,18.70
2022-12-01T21:23:59.771Z,19.05
2022-12-01T21:26:26.290Z,18.85
2022-12-01T21:28:55.493Z,19.95
2022-12-01T21:31:22.060Z,19.20
2022-12-01T21:33:48.572Z,19.52
2022-12-01T21:36:18.449Z,17.90
2022-12-01T21:38:46.349Z,20.85
2022-12-01T21:41:20.630Z,20.00
2022-12-01T21:43:47.218Z,19.80
2022-12-01T21:46:16.166Z,18.40
2022-12-01T21:48:43.920Z,20.83
2022-12-01T21:51:22.926Z,17.83
2022-12-01T21:53:51.492Z,16.60
2022-12-01T21:56:21.458Z,18.40
2022-12-01T21:58:49.087Z,18.38
2022-12-01T22:01:30.837Z,19.30
2022-12-01T22:04:02.376Z,18.65
2022-12-01T22:06:41.066Z,18.52
2022-12-01T22:09:34.067Z,18.43
2022-12-01T22:12:29.442Z,18.58
2022-12-01T22:15:00.845Z,19.80
2022-12-01T22:17:27.988Z,21.58
2022-12-01T22:19:59.744Z,19.25
2022-12-01T22:22:28.496Z,20.60
2022-12-01T22:25:01.887Z,19.85
2022-12-01T22:27:43.292Z,19.65
2022-12-01T22:30:09.742Z,18.98
2022-12-01T22:32:44.155Z,17.65
2022-12-01T22:35:16.550Z,18.47
2022-12-01T22:37:48.349Z,19.05
2022-12-01T22:40:39.565Z,19.23
2022-12-01T22:43:18.365Z,19.02
2022-12-01T22:45:47.714Z,20.33
2022-12-01T22:48:33.157Z,19.77
2022-12-01T22:51:24.408Z,17.48
2022-12-01T22:53:56.955Z,18.20
2022-12-01T22:56:23.381Z,18.67
2022-12-01T22:58:49.880Z,17.17
2022-12-01T23:01:33.024Z,17.60
2022-12-01T23:04:08.312Z,16.58
2022-12-01T23:07:02.879Z,18.00
2022-12-01T23:09:42.362Z,17.75
2022-12-01T23:12:11.768Z,18.55
2022-12-01T23:14:41.337Z,18.05
2022-12-01T23:17:14.917Z,17.63
2022-12-01T23:19:41.478Z,17.70
2022-12-01T23:22:09.590Z,18.45
2022-12-01T23:24:36.116Z,18.55
2022-12-01T23:27:02.891Z,19.77
2022-12-01T23:29:30.896Z,20.27
2022-12-01T23:31:57.623Z,19.13
2022-12-01T23:34:24.155Z,18.35
2022-12-01T23:36:50.780Z,18.77
2022-12-01T23:39:19.037Z,17.30
2022-12-01T23:41:48.490Z,18.48
2022-12-01T23:44:34.407Z,18.30
2022-12-01T23:47:01.212Z,18.27
2022-12-01T23:49:31.878Z,17.88
2022-12-01T23:52:01.186Z,17.50
2022-12-01T23:54:32.870Z,17.90
2022-12-01T23:57:09.981Z,18.42
2022-12-01T23:59:37.899Z,17.10
